sensor_id;sensor_type;location;lat;lon;timestamp;temperature;humidity
2435;DHT22;1228;51.022;6.764;2023-06-26T00:02:12;21.90;99.90
2435;DHT22;1228;51.022;6.764;2023-06-26T00:04:38;21.80;99.90
2435;DHT22;1228;51.022;6.764;2023-06-26T00:07:04;21.80;99.90
2435;DHT22;1228;51.022;6.764;2023-06-26T00:09:30;21.70;99.90
2435;DHT22;1228;51.022;6.764;2023-06-26T00:11:56;21.70;99.90
2435;DHT22;1228;51.022;6.764;2023-06-26T00:14:21;21.60;99.90
2435;DHT22;1228;51.022;6.764;2023-06-26T00:16:47;21.60;99.90
2435;DHT22;1228;51.022;6.764;2023-06-26T00:19:15;21.50;99.90
2435;DHT22;1228;51.022;6.764;2023-06-26T00:21:41;21.50;99.90
2435;DHT22;1228;51.022;6.764;2023-06-26T00:24:17;21.40;99.90
2435;DHT22;1228;51.022;6.764;2023-06-26T00:26:43;21.40;99.90
2435;DHT22;1228;51.022;6.764;2023-06-26T00:29:08;21.40;99.90
2435;DHT22;1228;51.022;6.764;2023-06-26T00:31:34;21.30;99.90
2435;DHT22;1228;51.022;6.764;2023-06-26T00:34:01;21.20;99.90
2435;DHT22;1228;51.022;6.764;2023-06-26T00:36:27;21.20;99.90
2435;DHT22;1228;51.022;6.764;2023-06-26T00:38:53;21.20;99.90
2435;DHT22;1228;51.022;6.764;2023-06-26T00:41:19;21.10;99.90
2435;DHT22;1228;51.022;6.764;2023-06-26T00:43:44;21.10;99.90
2435;DHT22;1228;51.022;6.764;2023-06-26T00:46:12;21.10;99.90
2435;DHT22;1228;51.022;6.764;2023-06-26T00:48:39;21.10;99.90
2435;DHT22;1228;51.022;6.764;2023-06-26T00:51:06;21.00;99.90
2435;DHT22;1228;51.022;6.764;2023-06-26T00:53:33;20.90;99.90
2435;DHT22;1228;51.022;6.764;2023-06-26T00:55:59;20.90;99.90
2435;DHT22;1228;51.022;6.764;2023-06-26T00:58:26;20.90;99.90
2435;DHT22;1228;51.022;6.764;2023-06-26T01:00:52;20.90;99.90
2435;DHT22;1228;51.022;6.764;2023-06-26T01:03:18;20.90;99.90
2435;DHT22;1228;51.022;6.764;2023-06-26T01:05:44;20.90;99.90
2435;DHT22;1228;51.022;6.764;2023-06-26T01:08:12;20.90;99.90
2435;DHT22;1228;51.022;6.764;2023-06-26T01:10:39;20.90;99.90
2435;DHT22;1228;51.022;6.764;2023-06-26T01:13:05;21.00;99.90
2435;DHT22;1228;51.022;6.764;2023-06-26T01:15:30;20.90;99.90
2435;DHT22;1228;51.022;6.764;2023-06-26T01:17:57;20.90;99.90
2435;DHT22;1228;51.022;6.764;2023-06-26T01:20:32;20.90;99.90
2435;DHT22;1228;51.022;6.764;2023-06-26T01:25:46;20.90;99.90
2435;DHT22;1228;51.022;6.764;2023-06-26T01:28:17;20.70;99.90
2435;DHT22;1228;51.022;6.764;2023-06-26T01:30:45;20.70;99.90
2435;DHT22;1228;51.022;6.764;2023-06-26T01:33:12;20.70;99.90
2435;DHT22;1228;51.022;6.764;2023-06-26T01:35:38;20.60;99.90
2435;DHT22;1228;51.022;6.764;2023-06-26T01:38:21;20.60;99.90
2435;DHT22;1228;51.022;6.764;2023-06-26T01:40:50;20.60;99.90
2435;DHT22;1228;51.022;6.764;2023-06-26T01:45:54;20.60;99.90
2435;DHT22;1228;51.022;6.764;2023-06-26T01:48:23;20.60;99.90
2435;DHT22;1228;51.022;6.764;2023-06-26T01:50:52;20.60;99.90
2435;DHT22;1228;51.022;6.764;2023-06-26T01:53:21;20.60;99.90
2435;DHT22;1228;51.022;6.764;2023-06-26T01:55:53;20.70;99.90
2435;DHT22;1228;51.022;6.764;2023-06-26T01:58:23;20.60;99.90
2435;DHT22;1228;51.022;6.764;2023-06-26T02:00:49;20.70;99.90
2435;DHT22;1228;51.022;6.764;2023-06-26T02:03:15;20.70;99.90
2435;DHT22;1228;51.022;6.764;2023-06-26T02:05:41;20.60;99.90
2435;DHT22;1228;51.022;6.764;2023-06-26T02:08:08;20.60;99.90
2435;DHT22;1228;51.022;6.764;2023-06-26T02:10:34;20.60;99.90
2435;DHT22;1228;51.022;6.764;2023-06-26T02:13:00;20.60;99.90
2435;DHT22;1228;51.022;6.764;2023-06-26T02:15:26;20.60;99.90
2435;DHT22;1228;51.022;6.764;2023-06-26T02:17:51;20.60;99.90
2435;DHT22;1228;51.022;6.764;2023-06-26T02:20:17;20.60;99.90
2435;DHT22;1228;51.022;6.764;2023-06-26T02:22:43;20.60;99.90
2435;DHT22;1228;51.022;6.764;2023-06-26T02:25:09;20.60;99.90
2435;DHT22;1228;51.022;6.764;2023-06-26T02:27:35;20.60;99.90
2435;DHT22;1228;51.022;6.764;2023-06-26T02:30:01;20.60;99.90
2435;DHT22;1228;51.022;6.764;2023-06-26T02:32:27;20.50;99.90
2435;DHT22;1228;51.022;6.764;2023-06-26T02:34:52;20.60;99.90
2435;DHT22;1228;51.022;6.764;2023-06-26T02:37:19;20.50;99.90
2435;DHT22;1228;51.022;6.764;2023-06-26T02:39:45;20.40;99.90
2435;DHT22;1228;51.022;6.764;2023-06-26T02:42:10;20.40;99.90
2435;DHT22;1228;51.022;6.764;2023-06-26T02:44:36;20.40;99.90
2435;DHT22;1228;51.022;6.764;2023-06-26T02:47:01;20.40;99.90
2435;DHT22;1228;51.022;6.764;2023-06-26T02:49:27;20.40;99.90
2435;DHT22;1228;51.022;6.764;2023-06-26T02:51:52;20.50;99.90
2435;DHT22;1228;51.022;6.764;2023-06-26T02:54:18;20.50;99.90
2435;DHT22;1228;51.022;6.764;2023-06-26T02:56:44;20.60;99.90
2435;DHT22;1228;51.022;6.764;2023-06-26T02:59:09;20.70;99.90
2435;DHT22;1228;51.022;6.764;2023-06-26T03:01:35;20.70;99.90
2435;DHT22;1228;51.022;6.764;2023-06-26T03:04:00;20.80;99.90
2435;DHT22;1228;51.022;6.764;2023-06-26T03:06:27;20.90;99.90
2435;DHT22;1228;51.022;6.764;2023-06-26T03:08:53;20.90;99.90
2435;DHT22;1228;51.022;6.764;2023-06-26T03:11:19;21.00;99.90
2435;DHT22;1228;51.022;6.764;2023-06-26T03:13:45;21.00;99.90
2435;DHT22;1228;51.022;6.764;2023-06-26T03:16:10;21.00;99.90
2435;DHT22;1228;51.022;6.764;2023-06-26T03:18:36;21.00;99.90
2435;DHT22;1228;51.022;6.764;2023-06-26T03:21:02;21.00;99.90
2435;DHT22;1228;51.022;6.764;2023-06-26T03:23:27;20.90;99.90
2435;DHT22;1228;51.022;6.764;2023-06-26T03:25:53;20.90;99.90
2435;DHT22;1228;51.022;6.764;2023-06-26T03:28:19;20.90;99.90
2435;DHT22;1228;51.022;6.764;2023-06-26T03:30:44;20.80;99.90
2435;DHT22;1228;51.022;6.764;2023-06-26T03:33:10;20.70;99.90
2435;DHT22;1228;51.022;6.764;2023-06-26T03:35:36;20.70;99.90
2435;DHT22;1228;51.022;6.764;2023-06-26T03:38:03;20.60;99.90
2435;DHT22;1228;51.022;6.764;2023-06-26T03:40:28;20.60;99.90
2435;DHT22;1228;51.022;6.764;2023-06-26T03:42:54;20.60;99.90
2435;DHT22;1228;51.022;6.764;2023-06-26T03:45:19;20.60;99.90
2435;DHT22;1228;51.022;6.764;2023-06-26T03:47:45;20.60;99.90
2435;DHT22;1228;51.022;6.764;2023-06-26T03:50:17;20.70;99.90
2435;DHT22;1228;51.022;6.764;2023-06-26T03:52:42;20.70;99.90
2435;DHT22;1228;51.022;6.764;2023-06-26T03:55:08;20.70;99.90
2435;DHT22;1228;51.022;6.764;2023-06-26T03:57:34;20.60;99.90
2435;DHT22;1228;51.022;6.764;2023-06-26T04:00:00;20.70;99.90
2435;DHT22;1228;51.022;6.764;2023-06-26T04:02:25;20.70;99.90
2435;DHT22;1228;51.022;6.764;2023-06-26T04:04:51;20.60;99.90
2435;DHT22;1228;51.022;6.764;2023-06-26T04:07:18;20.60;99.90
2435;DHT22;1228;51.022;6.764;2023-06-26T04:09:44;20.60;99.90
2435;DHT22;1228;51.022;6.764;2023-06-26T04:12:10;20.70;99.90
2435;DHT22;1228;51.022;6.764;2023-06-26T04:14:35;20.80;99.90
2435;DHT22;1228;51.022;6.764;2023-06-26T04:17:01;20.80;99.90
2435;DHT22;1228;51.022;6.764;2023-06-26T04:19:29;20.90;99.90
2435;DHT22;1228;51.022;6.764;2023-06-26T04:21:56;21.00;99.90
2435;DHT22;1228;51.022;6.764;2023-06-26T04:24:21;21.00;99.90
2435;DHT22;1228;51.022;6.764;2023-06-26T04:26:47;21.10;99.90
2435;DHT22;1228;51.022;6.764;2023-06-26T04:29:13;21.20;99.90
2435;DHT22;1228;51.022;6.764;2023-06-26T04:31:39;21.20;99.90
2435;DHT22;1228;51.022;6.764;2023-06-26T04:34:05;21.30;99.90
2435;DHT22;1228;51.022;6.764;2023-06-26T04:36:31;21.30;99.90
2435;DHT22;1228;51.022;6.764;2023-06-26T04:38:58;21.30;99.90
2435;DHT22;1228;51.022;6.764;2023-06-26T04:41:24;21.30;99.90
2435;DHT22;1228;51.022;6.764;2023-06-26T04:43:50;21.30;99.90
2435;DHT22;1228;51.022;6.764;2023-06-26T04:46:16;21.40;99.90
2435;DHT22;1228;51.022;6.764;2023-06-26T04:48:41;21.40;99.90
2435;DHT22;1228;51.022;6.764;2023-06-26T04:51:07;21.40;99.90
2435;DHT22;1228;51.022;6.764;2023-06-26T04:53:32;21.50;99.90
2435;DHT22;1228;51.022;6.764;2023-06-26T04:55:58;21.60;99.90
2435;DHT22;1228;51.022;6.764;2023-06-26T04:58:23;21.60;99.90
2435;DHT22;1228;51.022;6.764;2023-06-26T05:00:49;21.60;99.90
2435;DHT22;1228;51.022;6.764;2023-06-26T05:03:16;21.70;99.90
2435;DHT22;1228;51.022;6.764;2023-06-26T05:05:42;21.80;99.90
2435;DHT22;1228;51.022;6.764;2023-06-26T05:08:22;21.80;99.90
2435;DHT22;1228;51.022;6.764;2023-06-26T05:10:48;21.80;99.90
2435;DHT22;1228;51.022;6.764;2023-06-26T05:13:14;21.80;99.90
2435;DHT22;1228;51.022;6.764;2023-06-26T05:15:46;21.80;99.90
2435;DHT22;1228;51.022;6.764;2023-06-26T05:18:11;21.70;99.90
2435;DHT22;1228;51.022;6.764;2023-06-26T05:20:37;21.60;99.90
2435;DHT22;1228;51.022;6.764;2023-06-26T05:23:04;21.60;99.90
2435;DHT22;1228;51.022;6.764;2023-06-26T05:25:30;21.70;99.90
2435;DHT22;1228;51.022;6.764;2023-06-26T05:27:57;21.80;99.90
2435;DHT22;1228;51.022;6.764;2023-06-26T05:30:24;21.90;99.90
2435;DHT22;1228;51.022;6.764;2023-06-26T05:32:54;22.00;99.90
2435;DHT22;1228;51.022;6.764;2023-06-26T05:35:23;21.90;99.90
2435;DHT22;1228;51.022;6.764;2023-06-26T05:37:49;21.80;99.90
2435;DHT22;1228;51.022;6.764;2023-06-26T05:40:17;21.80;99.90
2435;DHT22;1228;51.022;6.764;2023-06-26T05:42:43;21.80;99.90
2435;DHT22;1228;51.022;6.764;2023-06-26T05:45:09;21.80;99.90
2435;DHT22;1228;51.022;6.764;2023-06-26T05:47:35;21.70;99.90
2435;DHT22;1228;51.022;6.764;2023-06-26T05:50:01;21.70;99.90
2435;DHT22;1228;51.022;6.764;2023-06-26T05:52:27;21.80;99.90
2435;DHT22;1228;51.022;6.764;2023-06-26T05:54:53;22.20;99.90
2435;DHT22;1228;51.022;6.764;2023-06-26T05:57:20;22.40;99.90
2435;DHT22;1228;51.022;6.764;2023-06-26T05:59:46;22.70;99.90
2435;DHT22;1228;51.022;6.764;2023-06-26T06:02:12;22.80;99.90
2435;DHT22;1228;51.022;6.764;2023-06-26T06:04:38;22.80;99.90
2435;DHT22;1228;51.022;6.764;2023-06-26T06:07:04;22.70;99.90
2435;DHT22;1228;51.022;6.764;2023-06-26T06:09:29;22.60;99.90
2435;DHT22;1228;51.022;6.764;2023-06-26T06:11:55;22.60;99.90
2435;DHT22;1228;51.022;6.764;2023-06-26T06:14:20;22.60;99.90
2435;DHT22;1228;51.022;6.764;2023-06-26T06:16:46;22.60;99.90
2435;DHT22;1228;51.022;6.764;2023-06-26T06:19:11;22.60;99.90
2435;DHT22;1228;51.022;6.764;2023-06-26T06:21:39;22.40;99.90
2435;DHT22;1228;51.022;6.764;2023-06-26T06:24:05;22.30;99.90
2435;DHT22;1228;51.022;6.764;2023-06-26T06:26:32;22.20;99.90
2435;DHT22;1228;51.022;6.764;2023-06-26T06:28:58;22.10;99.90
2435;DHT22;1228;51.022;6.764;2023-06-26T06:31:23;22.10;99.90
2435;DHT22;1228;51.022;6.764;2023-06-26T06:33:49;22.00;99.90
2435;DHT22;1228;51.022;6.764;2023-06-26T06:36:14;21.80;99.90
2435;DHT22;1228;51.022;6.764;2023-06-26T06:38:43;21.70;99.90
2435;DHT22;1228;51.022;6.764;2023-06-26T06:41:09;21.40;99.90
2435;DHT22;1228;51.022;6.764;2023-06-26T06:43:34;21.50;99.90
2435;DHT22;1228;51.022;6.764;2023-06-26T06:46:01;21.60;99.90
2435;DHT22;1228;51.022;6.764;2023-06-26T06:48:27;22.10;99.90
2435;DHT22;1228;51.022;6.764;2023-06-26T06:50:52;22.50;99.90
2435;DHT22;1228;51.022;6.764;2023-06-26T06:53:18;22.90;99.90
2435;DHT22;1228;51.022;6.764;2023-06-26T06:55:48;23.20;99.90
2435;DHT22;1228;51.022;6.764;2023-06-26T06:58:14;23.30;99.90
2435;DHT22;1228;51.022;6.764;2023-06-26T07:00:42;23.40;99.90
2435;DHT22;1228;51.022;6.764;2023-06-26T07:03:08;23.20;99.90
2435;DHT22;1228;51.022;6.764;2023-06-26T07:05:33;23.10;99.90
2435;DHT22;1228;51.022;6.764;2023-06-26T07:07:59;23.10;99.90
2435;DHT22;1228;51.022;6.764;2023-06-26T07:10:24;22.90;99.90
2435;DHT22;1228;51.022;6.764;2023-06-26T07:12:50;22.50;99.90
2435;DHT22;1228;51.022;6.764;2023-06-26T07:15:16;22.40;99.90
2435;DHT22;1228;51.022;6.764;2023-06-26T07:17:42;22.20;99.90
2435;DHT22;1228;51.022;6.764;2023-06-26T07:20:08;22.20;99.90
2435;DHT22;1228;51.022;6.764;2023-06-26T07:22:36;22.20;99.90
2435;DHT22;1228;51.022;6.764;2023-06-26T07:25:02;22.10;99.90
2435;DHT22;1228;51.022;6.764;2023-06-26T07:27:29;22.10;99.90
2435;DHT22;1228;51.022;6.764;2023-06-26T07:29:54;22.40;99.90
2435;DHT22;1228;51.022;6.764;2023-06-26T07:32:20;22.90;99.90
2435;DHT22;1228;51.022;6.764;2023-06-26T07:34:46;23.50;99.90
2435;DHT22;1228;51.022;6.764;2023-06-26T07:37:11;23.90;99.90
2435;DHT22;1228;51.022;6.764;2023-06-26T07:39:37;24.30;99.90
2435;DHT22;1228;51.022;6.764;2023-06-26T07:42:03;24.70;99.90
2435;DHT22;1228;51.022;6.764;2023-06-26T07:44:28;25.00;99.90
2435;DHT22;1228;51.022;6.764;2023-06-26T07:46:54;25.20;99.90
2435;DHT22;1228;51.022;6.764;2023-06-26T07:49:19;25.50;99.90
2435;DHT22;1228;51.022;6.764;2023-06-26T07:51:45;25.80;99.90
2435;DHT22;1228;51.022;6.764;2023-06-26T07:54:11;25.60;99.90
2435;DHT22;1228;51.022;6.764;2023-06-26T07:59:20;25.70;99.90
2435;DHT22;1228;51.022;6.764;2023-06-26T08:01:46;25.90;99.90
2435;DHT22;1228;51.022;6.764;2023-06-26T08:04:12;25.80;99.90
2435;DHT22;1228;51.022;6.764;2023-06-26T08:06:37;25.60;99.90
2435;DHT22;1228;51.022;6.764;2023-06-26T08:09:06;25.50;99.90
2435;DHT22;1228;51.022;6.764;2023-06-26T08:11:33;25.40;99.90
2435;DHT22;1228;51.022;6.764;2023-06-26T08:13:59;25.40;99.90
2435;DHT22;1228;51.022;6.764;2023-06-26T08:16:24;25.20;99.90
2435;DHT22;1228;51.022;6.764;2023-06-26T08:18:50;25.00;99.90
2435;DHT22;1228;51.022;6.764;2023-06-26T08:21:16;25.10;99.90
2435;DHT22;1228;51.022;6.764;2023-06-26T08:23:41;25.50;99.90
2435;DHT22;1228;51.022;6.764;2023-06-26T08:26:07;25.70;99.90
2435;DHT22;1228;51.022;6.764;2023-06-26T08:28:33;25.50;99.90
2435;DHT22;1228;51.022;6.764;2023-06-26T08:30:59;25.50;99.90
2435;DHT22;1228;51.022;6.764;2023-06-26T08:33:25;25.80;99.90
2435;DHT22;1228;51.022;6.764;2023-06-26T10:44:05;27.20;99.90
2435;DHT22;1228;51.022;6.764;2023-06-26T10:49:17;27.40;99.90
2435;DHT22;1228;51.022;6.764;2023-06-26T10:51:46;27.50;99.90
2435;DHT22;1228;51.022;6.764;2023-06-26T10:54:15;27.90;99.90
2435;DHT22;1228;51.022;6.764;2023-06-26T10:56:43;28.00;99.90
2435;DHT22;1228;51.022;6.764;2023-06-26T10:59:20;27.90;99.90
2435;DHT22;1228;51.022;6.764;2023-06-26T11:02:02;27.90;99.90
2435;DHT22;1228;51.022;6.764;2023-06-26T11:04:46;28.40;99.90
2435;DHT22;1228;51.022;6.764;2023-06-26T11:07:22;28.20;99.90
2435;DHT22;1228;51.022;6.764;2023-06-26T11:12:43;27.60;99.90
2435;DHT22;1228;51.022;6.764;2023-06-26T11:15:13;27.80;99.90
2435;DHT22;1228;51.022;6.764;2023-06-26T11:17:40;27.60;99.90
2435;DHT22;1228;51.022;6.764;2023-06-26T11:20:07;27.40;99.90
2435;DHT22;1228;51.022;6.764;2023-06-26T11:22:38;27.40;99.90
2435;DHT22;1228;51.022;6.764;2023-06-26T11:25:05;27.60;99.90
2435;DHT22;1228;51.022;6.764;2023-06-26T11:27:40;27.70;99.90
2435;DHT22;1228;51.022;6.764;2023-06-26T11:30:07;28.20;99.90
2435;DHT22;1228;51.022;6.764;2023-06-26T11:32:34;28.40;99.90
2435;DHT22;1228;51.022;6.764;2023-06-26T11:34:59;28.80;99.90
2435;DHT22;1228;51.022;6.764;2023-06-26T11:37:26;28.30;99.90
2435;DHT22;1228;51.022;6.764;2023-06-26T11:39:51;28.20;99.90
2435;DHT22;1228;51.022;6.764;2023-06-26T11:42:19;28.20;99.90
2435;DHT22;1228;51.022;6.764;2023-06-26T11:44:45;27.90;99.90
2435;DHT22;1228;51.022;6.764;2023-06-26T11:49:48;28.40;99.90
2435;DHT22;1228;51.022;6.764;2023-06-26T11:52:14;28.20;99.90
2435;DHT22;1228;51.022;6.764;2023-06-26T11:54:41;27.80;99.90
2435;DHT22;1228;51.022;6.764;2023-06-26T11:57:07;27.30;99.90
2435;DHT22;1228;51.022;6.764;2023-06-26T11:59:38;27.30;99.90
2435;DHT22;1228;51.022;6.764;2023-06-26T12:02:06;27.70;99.90
2435;DHT22;1228;51.022;6.764;2023-06-26T12:04:32;28.10;99.90
2435;DHT22;1228;51.022;6.764;2023-06-26T12:06:59;28.40;99.90
2435;DHT22;1228;51.022;6.764;2023-06-26T12:09:25;28.30;99.90
2435;DHT22;1228;51.022;6.764;2023-06-26T12:11:53;28.00;99.90
2435;DHT22;1228;51.022;6.764;2023-06-26T12:14:20;27.60;99.90
2435;DHT22;1228;51.022;6.764;2023-06-26T12:16:47;26.80;99.90
2435;DHT22;1228;51.022;6.764;2023-06-26T12:19:13;26.30;99.90
2435;DHT22;1228;51.022;6.764;2023-06-26T12:24:16;25.20;99.90
2435;DHT22;1228;51.022;6.764;2023-06-26T12:26:48;25.80;99.90
2435;DHT22;1228;51.022;6.764;2023-06-26T12:29:17;26.70;99.90
2435;DHT22;1228;51.022;6.764;2023-06-26T12:31:53;27.70;99.90
2435;DHT22;1228;51.022;6.764;2023-06-26T12:34:28;27.90;99.90
2435;DHT22;1228;51.022;6.764;2023-06-26T12:36:53;27.90;99.90
2435;DHT22;1228;51.022;6.764;2023-06-26T12:39:20;27.70;99.90
2435;DHT22;1228;51.022;6.764;2023-06-26T12:41:57;27.30;99.90
2435;DHT22;1228;51.022;6.764;2023-06-26T12:44:28;27.20;99.90
2435;DHT22;1228;51.022;6.764;2023-06-26T12:47:01;26.70;99.90
2435;DHT22;1228;51.022;6.764;2023-06-26T12:49:34;26.60;99.90
2435;DHT22;1228;51.022;6.764;2023-06-26T12:52:01;26.30;99.90
2435;DHT22;1228;51.022;6.764;2023-06-26T12:54:27;26.10;99.90
2435;DHT22;1228;51.022;6.764;2023-06-26T12:56:53;26.10;99.90
2435;DHT22;1228;51.022;6.764;2023-06-26T12:59:19;26.50;99.90
2435;DHT22;1228;51.022;6.764;2023-06-26T13:01:45;26.40;99.90
2435;DHT22;1228;51.022;6.764;2023-06-26T13:04:11;26.00;99.90
2435;DHT22;1228;51.022;6.764;2023-06-26T13:06:36;25.70;99.90
2435;DHT22;1228;51.022;6.764;2023-06-26T13:09:02;25.50;99.90
2435;DHT22;1228;51.022;6.764;2023-06-26T13:11:31;25.70;99.90
2435;DHT22;1228;51.022;6.764;2023-06-26T13:13:58;26.30;99.90
2435;DHT22;1228;51.022;6.764;2023-06-26T13:16:23;26.50;99.90
2435;DHT22;1228;51.022;6.764;2023-06-26T13:18:49;26.60;99.90
2435;DHT22;1228;51.022;6.764;2023-06-26T13:21:15;26.70;99.90
2435;DHT22;1228;51.022;6.764;2023-06-26T13:23:41;26.50;99.90
2435;DHT22;1228;51.022;6.764;2023-06-26T13:26:07;26.30;99.90
2435;DHT22;1228;51.022;6.764;2023-06-26T13:28:33;26.10;99.90
2435;DHT22;1228;51.022;6.764;2023-06-26T13:30:58;26.00;99.90
2435;DHT22;1228;51.022;6.764;2023-06-26T13:33:24;26.10;99.90
2435;DHT22;1228;51.022;6.764;2023-06-26T13:35:52;25.90;99.90
2435;DHT22;1228;51.022;6.764;2023-06-26T13:38:22;26.10;99.90
2435;DHT22;1228;51.022;6.764;2023-06-26T13:40:54;26.60;99.90
2435;DHT22;1228;51.022;6.764;2023-06-26T13:43:22;26.90;99.90
2435;DHT22;1228;51.022;6.764;2023-06-26T13:45:49;26.90;99.90
2435;DHT22;1228;51.022;6.764;2023-06-26T13:48:15;26.40;99.90
2435;DHT22;1228;51.022;6.764;2023-06-26T13:50:41;26.20;99.90
2435;DHT22;1228;51.022;6.764;2023-06-26T13:53:06;26.30;99.90
2435;DHT22;1228;51.022;6.764;2023-06-26T13:55:33;26.10;99.90
2435;DHT22;1228;51.022;6.764;2023-06-26T13:57:59;26.20;99.90
2435;DHT22;1228;51.022;6.764;2023-06-26T14:00:25;26.40;99.90
2435;DHT22;1228;51.022;6.764;2023-06-26T14:02:51;26.10;99.90
2435;DHT22;1228;51.022;6.764;2023-06-26T14:05:17;25.70;99.90
2435;DHT22;1228;51.022;6.764;2023-06-26T14:07:44;25.80;99.90
2435;DHT22;1228;51.022;6.764;2023-06-26T14:10:10;26.50;99.90
2435;DHT22;1228;51.022;6.764;2023-06-26T14:12:36;27.30;99.90
2435;DHT22;1228;51.022;6.764;2023-06-26T14:15:01;27.40;99.90
2435;DHT22;1228;51.022;6.764;2023-06-26T14:17:28;27.00;99.90
2435;DHT22;1228;51.022;6.764;2023-06-26T14:19:54;26.50;99.90
2435;DHT22;1228;51.022;6.764;2023-06-26T14:22:20;26.30;99.90
2435;DHT22;1228;51.022;6.764;2023-06-26T14:24:46;26.60;99.90
2435;DHT22;1228;51.022;6.764;2023-06-26T14:27:12;26.80;99.90
2435;DHT22;1228;51.022;6.764;2023-06-26T14:29:37;26.80;99.90
2435;DHT22;1228;51.022;6.764;2023-06-26T14:32:03;26.80;99.90
2435;DHT22;1228;51.022;6.764;2023-06-26T14:34:29;26.80;99.90
2435;DHT22;1228;51.022;6.764;2023-06-26T14:36:55;27.20;99.90
2435;DHT22;1228;51.022;6.764;2023-06-26T14:39:21;27.50;99.90
2435;DHT22;1228;51.022;6.764;2023-06-26T14:41:47;27.70;99.90
2435;DHT22;1228;51.022;6.764;2023-06-26T14:44:16;27.70;99.90
2435;DHT22;1228;51.022;6.764;2023-06-26T14:46:42;27.60;99.40
2435;DHT22;1228;51.022;6.764;2023-06-26T14:49:08;27.40;99.90
2435;DHT22;1228;51.022;6.764;2023-06-26T14:51:34;27.20;99.90
2435;DHT22;1228;51.022;6.764;2023-06-26T14:54:00;27.20;99.90
2435;DHT22;1228;51.022;6.764;2023-06-26T14:56:26;27.50;99.60
2435;DHT22;1228;51.022;6.764;2023-06-26T14:58:51;27.40;96.90
2435;DHT22;1228;51.022;6.764;2023-06-26T15:01:18;27.30;97.30
2435;DHT22;1228;51.022;6.764;2023-06-26T15:03:46;27.20;97.50
2435;DHT22;1228;51.022;6.764;2023-06-26T15:06:11;27.10;98.50
2435;DHT22;1228;51.022;6.764;2023-06-26T15:08:37;27.10;97.80
2435;DHT22;1228;51.022;6.764;2023-06-26T15:11:02;26.90;97.10
2435;DHT22;1228;51.022;6.764;2023-06-26T15:13:28;26.80;96.20
2435;DHT22;1228;51.022;6.764;2023-06-26T15:15:54;26.70;97.00
2435;DHT22;1228;51.022;6.764;2023-06-26T15:18:19;26.40;98.00
2435;DHT22;1228;51.022;6.764;2023-06-26T15:20:45;26.30;99.30
2435;DHT22;1228;51.022;6.764;2023-06-26T15:23:11;26.20;99.60
2435;DHT22;1228;51.022;6.764;2023-06-26T15:25:37;26.30;99.90
2435;DHT22;1228;51.022;6.764;2023-06-26T15:28:04;26.50;99.80
2435;DHT22;1228;51.022;6.764;2023-06-26T15:30:30;26.20;99.80
2435;DHT22;1228;51.022;6.764;2023-06-26T15:32:55;26.10;99.90
2435;DHT22;1228;51.022;6.764;2023-06-26T15:35:21;26.30;99.90
2435;DHT22;1228;51.022;6.764;2023-06-26T15:37:46;26.40;99.70
2435;DHT22;1228;51.022;6.764;2023-06-26T15:40:13;26.40;99.30
2435;DHT22;1228;51.022;6.764;2023-06-26T15:42:48;26.20;99.90
2435;DHT22;1228;51.022;6.764;2023-06-26T15:45:15;26.10;99.90
2435;DHT22;1228;51.022;6.764;2023-06-26T15:47:43;26.10;99.90
2435;DHT22;1228;51.022;6.764;2023-06-26T15:50:10;26.30;99.90
2435;DHT22;1228;51.022;6.764;2023-06-26T15:52:37;26.50;99.90
2435;DHT22;1228;51.022;6.764;2023-06-26T15:55:03;26.30;99.90
2435;DHT22;1228;51.022;6.764;2023-06-26T15:57:30;26.10;99.90
2435;DHT22;1228;51.022;6.764;2023-06-26T15:59:56;26.50;99.90
2435;DHT22;1228;51.022;6.764;2023-06-26T16:02:21;26.80;99.90
2435;DHT22;1228;51.022;6.764;2023-06-26T16:04:47;26.90;99.90
2435;DHT22;1228;51.022;6.764;2023-06-26T16:07:13;26.90;99.60
2435;DHT22;1228;51.022;6.764;2023-06-26T16:09:38;26.90;99.30
2435;DHT22;1228;51.022;6.764;2023-06-26T16:12:04;26.50;98.50
2435;DHT22;1228;51.022;6.764;2023-06-26T16:14:30;26.20;99.60
2435;DHT22;1228;51.022;6.764;2023-06-26T16:16:55;26.20;98.70
2435;DHT22;1228;51.022;6.764;2023-06-26T16:19:21;26.00;99.20
2435;DHT22;1228;51.022;6.764;2023-06-26T16:21:46;26.10;99.70
2435;DHT22;1228;51.022;6.764;2023-06-26T16:24:12;26.10;99.60
2435;DHT22;1228;51.022;6.764;2023-06-26T16:26:39;26.10;99.30
2435;DHT22;1228;51.022;6.764;2023-06-26T16:29:05;25.70;98.40
2435;DHT22;1228;51.022;6.764;2023-06-26T16:31:30;25.20;99.60
2435;DHT22;1228;51.022;6.764;2023-06-26T16:33:57;25.00;99.90
2435;DHT22;1228;51.022;6.764;2023-06-26T16:36:23;24.80;99.90
2435;DHT22;1228;51.022;6.764;2023-06-26T16:38:48;24.70;99.90
2435;DHT22;1228;51.022;6.764;2023-06-26T16:41:14;24.70;99.90
2435;DHT22;1228;51.022;6.764;2023-06-26T16:43:40;24.90;99.90
2435;DHT22;1228;51.022;6.764;2023-06-26T16:46:05;25.10;99.90
2435;DHT22;1228;51.022;6.764;2023-06-26T16:48:31;25.10;99.90
2435;DHT22;1228;51.022;6.764;2023-06-26T16:50:56;25.10;99.80
2435;DHT22;1228;51.022;6.764;2023-06-26T16:53:22;24.80;99.90
2435;DHT22;1228;51.022;6.764;2023-06-26T16:55:48;24.40;99.90
2435;DHT22;1228;51.022;6.764;2023-06-26T16:58:14;24.10;99.90
2435;DHT22;1228;51.022;6.764;2023-06-26T17:00:40;23.80;99.90
2435;DHT22;1228;51.022;6.764;2023-06-26T17:03:06;23.80;99.90
2435;DHT22;1228;51.022;6.764;2023-06-26T17:05:32;23.80;99.90
2435;DHT22;1228;51.022;6.764;2023-06-26T17:07:57;23.70;99.90
2435;DHT22;1228;51.022;6.764;2023-06-26T17:10:23;23.70;99.90
2435;DHT22;1228;51.022;6.764;2023-06-26T17:12:49;23.70;99.90
2435;DHT22;1228;51.022;6.764;2023-06-26T17:15:14;23.70;99.90
2435;DHT22;1228;51.022;6.764;2023-06-26T17:17:40;23.70;99.90
2435;DHT22;1228;51.022;6.764;2023-06-26T17:20:06;23.70;99.90
2435;DHT22;1228;51.022;6.764;2023-06-26T17:22:35;23.70;99.90
2435;DHT22;1228;51.022;6.764;2023-06-26T17:25:00;23.70;99.90
2435;DHT22;1228;51.022;6.764;2023-06-26T17:27:30;23.70;99.90
2435;DHT22;1228;51.022;6.764;2023-06-26T17:29:56;23.60;99.90
2435;DHT22;1228;51.022;6.764;2023-06-26T17:32:22;23.40;99.90
2435;DHT22;1228;51.022;6.764;2023-06-26T17:34:50;23.30;99.90
2435;DHT22;1228;51.022;6.764;2023-06-26T17:37:17;23.20;99.90
2435;DHT22;1228;51.022;6.764;2023-06-26T17:39:42;23.20;99.90
2435;DHT22;1228;51.022;6.764;2023-06-26T17:42:08;23.10;99.90
2435;DHT22;1228;51.022;6.764;2023-06-26T17:44:34;23.00;99.90
2435;DHT22;1228;51.022;6.764;2023-06-26T17:47:00;22.90;99.90
2435;DHT22;1228;51.022;6.764;2023-06-26T17:49:26;22.90;99.90
2435;DHT22;1228;51.022;6.764;2023-06-26T17:51:52;23.00;99.90
2435;DHT22;1228;51.022;6.764;2023-06-26T17:54:18;23.20;99.90
2435;DHT22;1228;51.022;6.764;2023-06-26T17:56:43;23.60;99.90
2435;DHT22;1228;51.022;6.764;2023-06-26T17:59:12;23.90;99.90
2435;DHT22;1228;51.022;6.764;2023-06-26T18:01:38;24.30;99.90
2435;DHT22;1228;51.022;6.764;2023-06-26T18:04:04;24.50;99.90
2435;DHT22;1228;51.022;6.764;2023-06-26T18:06:29;24.70;99.90
2435;DHT22;1228;51.022;6.764;2023-06-26T18:08:55;24.70;99.90
2435;DHT22;1228;51.022;6.764;2023-06-26T18:11:21;24.60;99.90
2435;DHT22;1228;51.022;6.764;2023-06-26T18:13:47;24.40;99.90
2435;DHT22;1228;51.022;6.764;2023-06-26T18:16:13;24.00;99.90
2435;DHT22;1228;51.022;6.764;2023-06-26T18:18:39;23.80;99.90
2435;DHT22;1228;51.022;6.764;2023-06-26T18:21:06;23.60;99.90
2435;DHT22;1228;51.022;6.764;2023-06-26T18:23:32;23.50;99.90
2435;DHT22;1228;51.022;6.764;2023-06-26T18:25:58;23.70;99.90